Pearl — PEARL — position and weather

sailwx.info

Track history (hours):
 
Tides and Currents Weather Stations Pressure Air Temp Water Temp Dewpoint Dewpoint Depression Visibility Wind Speed Wind Dir Waves Ship Positions

Pearl

Last reported at 2017-Oct-20 00:58 UTC. Time now 2017-Oct-20 01:31 UTC.
Position N 47°11' W 122°56'.

Length 38 m; draft 3.5 m.

Type: Pleasure craft. MMSI: 367639910.

Date/timePositionNaut miles runAvg speedWind from/ knotsBaromVisibWave heightAir tempDewpointWater temp
2017-Oct-20 00:58N 47°11' W 122°56'0 0.0
2017-Oct-20 00:28N 47°11' W 122°56'0 0.0
2017-Oct-19 23:27N 47°11' W 122°56'1122.2
2017-Oct-19 22:57N 46°60' W 122°55'3 3.6
2017-Oct-19 22:06N 47°02' W 122°57'439.1
2017-Oct-19 22:00N 47°05' W 123°01'0 0.4
2017-Oct-19 21:28N 47°05' W 123°01'5 2.9
2017-Oct-19 19:41N 47°02' W 122°55'0 0.0
2017-Oct-19 19:30N 47°02' W 122°55'0 0.0
2017-Oct-19 18:07N 47°02' W 122°55'0 0.0
2017-Oct-19 17:04N 47°02' W 122°55'0 0.1
2017-Oct-19 16:57N 47°02' W 122°55'920.3
2017-Oct-19 16:29N 47°11' W 122°56'0 0.0
2017-Oct-19 15:59N 47°11' W 122°56'0 0.0
2017-Oct-19 15:06N 47°11' W 122°56'0 0.0
2017-Oct-19 13:46N 47°11' W 122°56'0 0.0
2017-Oct-19 10:47N 47°11' W 122°56'0 0.0
2017-Oct-19 08:58N 47°11' W 122°56'0 0.0
2017-Oct-19 07:56N 47°11' W 122°56'0 0.0
2017-Oct-19 07:22N 47°11' W 122°56'0 0.0
2017-Oct-19 06:59N 47°11' W 122°56'0 0.0
2017-Oct-19 06:28N 47°11' W 122°56'0 0.0
2017-Oct-19 05:59N 47°11' W 122°56'0 0.0
2017-Oct-19 05:30N 47°11' W 122°56'0 0.0
2017-Oct-19 04:59N 47°11' W 122°56'8 1.8
2017-Oct-19 00:37N 47°03' W 122°56'1 4.0
2017-Oct-19 00:26N 47°03' W 122°56'1 0.4
2017-Oct-18 21:47N 47°02' W 122°55'0 0.0
2017-Oct-18 21:29N 47°02' W 122°55'0 0.0
2017-Oct-18 19:52N 47°02' W 122°55'0 0.0
2017-Oct-18 19:30N 47°02' W 122°55'0 0.0
2017-Oct-18 17:14N 47°02' W 122°55'0 0.0
2017-Oct-18 16:11N 47°02' W 122°55'421.3
2017-Oct-18 16:00N 47°03' W 123°00'8 8.7
2017-Oct-18 15:05N 47°11' W 122°56'0 0.0
2017-Oct-18 15:00N 47°11' W 122°56'0 0.0
2017-Oct-18 13:53N 47°11' W 122°56'0 0.0
2017-Oct-18 13:22N 47°11' W 122°56'0 0.0
2017-Oct-18 12:59N 47°11' W 122°56'0 0.0
2017-Oct-18 12:29N 47°11' W 122°56'0 0.0
2017-Oct-18 11:58N 47°11' W 122°56'0 0.0
2017-Oct-18 11:29N 47°11' W 122°56'0 0.0
2017-Oct-18 10:58N 47°11' W 122°56'0 0.0
2017-Oct-18 10:30N 47°11' W 122°56'0 0.0
2017-Oct-18 09:59N 47°11' W 122°56'0 0.0
2017-Oct-18 09:28N 47°11' W 122°56'0 0.0
2017-Oct-18 09:00N 47°11' W 122°56'0 0.0
2017-Oct-18 08:30N 47°11' W 122°56'0 0.0
2017-Oct-18 08:00N 47°11' W 122°56'0 0.0
2017-Oct-18 07:30N 47°11' W 122°56'0 0.0
2017-Oct-18 07:00N 47°11' W 122°56'0 0.0
2017-Oct-18 06:29N 47°11' W 122°56'0 0.0
2017-Oct-18 05:59N 47°11' W 122°56'0 0.1
2017-Oct-18 05:30N 47°11' W 122°56'0 0.0
2017-Oct-18 05:00N 47°11' W 122°56'0 0.0
2017-Oct-18 04:29N 47°11' W 122°56'0 0.0
2017-Oct-18 03:58N 47°11' W 122°56'26 9.9
2017-Oct-18 01:23N 47°16' W 122°19'1951.6
2017-Oct-18 01:00N 47°04' W 122°42'9 6.3
2017-Oct-17 23:32N 47°02' W 122°55'0 0.0
2017-Oct-17 23:28N 47°02' W 122°55'0 0.0
2017-Oct-17 22:55N 47°02' W 122°55'0 0.0
2017-Oct-17 22:27N 47°02' W 122°55'0 0.0
2017-Oct-17 21:59N 47°02' W 122°55'0 0.0
2017-Oct-17 20:50N 47°02' W 122°55'0 0.0
2017-Oct-17 20:26N 47°02' W 122°55'0 0.0
2017-Oct-17 19:52N 47°02' W 122°55'0 0.0
2017-Oct-17 19:30N 47°02' W 122°55'1 2.2
2017-Oct-17 18:59N 47°02' W 122°54'1 2.3
2017-Oct-17 18:30N 47°02' W 122°55'0 0.0
2017-Oct-17 17:18N 47°02' W 122°55'0 0.0
2017-Oct-17 16:50N 47°02' W 122°55'0 0.0
2017-Oct-17 16:28N 47°02' W 122°55'0 0.1
2017-Oct-17 15:57N 47°02' W 122°55'919.0
2017-Oct-17 15:28N 47°11' W 122°56'0 0.0
2017-Oct-17 14:58N 47°11' W 122°56'0 0.0
2017-Oct-17 14:28N 47°11' W 122°56'0 0.0
2017-Oct-17 13:58N 47°11' W 122°56'0 0.0
2017-Oct-17 13:30N 47°11' W 122°56'0 0.0
2017-Oct-17 12:47N 47°11' W 122°56'0 0.0
2017-Oct-17 11:23N 47°11' W 122°56'0 0.0
2017-Oct-17 10:49N 47°11' W 122°56'0 0.0
2017-Oct-17 10:01N 47°11' W 122°56'0 0.2
2017-Oct-17 09:58N 47°11' W 122°56'0 0.0
2017-Oct-17 09:29N 47°11' W 122°56'0 0.0
2017-Oct-17 03:15N 47°11' W 122°56'0 0.0
2017-Oct-17 03:00N 47°11' W 122°56'0 0.0
2017-Oct-17 02:30N 47°11' W 122°56'0 0.0
2017-Oct-17 02:00N 47°11' W 122°56'0 0.0
2017-Oct-17 01:28N 47°11' W 122°56'0 0.0
2017-Oct-17 00:59N 47°11' W 122°56'0 0.0
2017-Oct-17 00:30N 47°11' W 122°56'0 0.0
2017-Oct-16 23:59N 47°11' W 122°56'2 0.7
2017-Oct-16 21:20N 47°09' W 122°57'1235.7
2017-Oct-16 21:00N 46°57' W 122°56'1427.6
2017-Oct-16 20:30N 46°43' W 122°57'0 0.0
2017-Oct-16 19:56N 46°43' W 122°57'511.2
2017-Oct-16 19:28N 46°38' W 122°56'4154.5
2017-Oct-16 18:43N 45°57' W 122°48'2260.4
2017-Oct-16 18:21N 45°38' W 122°34'3 9.0
2017-Oct-16 18:00N 45°35' W 122°34'28513.8
2017-Oct-15 21:23N 40°50' W 122°20'  
Track history (hours):
 
Tides and Currents Weather Stations Pressure Air Temp Water Temp Dewpoint Dewpoint Depression Visibility Wind Speed Wind Dir Waves Ship Positions

Pearl

Last reported at 2017-Oct-20 00:58 UTC. Time now 2017-Oct-20 01:31 UTC.
Position N 47°11' W 122°56'.

Length 38 m; draft 3.5 m.

Type: Pleasure craft. MMSI: 367639910.

Date/timePositionNaut miles runAvg speedWind from/ knotsBaromVisibWave heightAir tempDewpointWater temp
2017-Oct-20 00:58N 47°11' W 122°56'0 0.0
2017-Oct-20 00:28N 47°11' W 122°56'0 0.0
2017-Oct-19 23:27N 47°11' W 122°56'1122.2
2017-Oct-19 22:57N 46°60' W 122°55'3 3.6
2017-Oct-19 22:06N 47°02' W 122°57'439.1
2017-Oct-19 22:00N 47°05' W 123°01'0 0.4
2017-Oct-19 21:28N 47°05' W 123°01'5 2.9
2017-Oct-19 19:41N 47°02' W 122°55'0 0.0
2017-Oct-19 19:30N 47°02' W 122°55'0 0.0
2017-Oct-19 18:07N 47°02' W 122°55'0 0.0
2017-Oct-19 17:04N 47°02' W 122°55'0 0.1
2017-Oct-19 16:57N 47°02' W 122°55'920.3
2017-Oct-19 16:29N 47°11' W 122°56'0 0.0
2017-Oct-19 15:59N 47°11' W 122°56'0 0.0
2017-Oct-19 15:06N 47°11' W 122°56'0 0.0
2017-Oct-19 13:46N 47°11' W 122°56'0 0.0
2017-Oct-19 10:47N 47°11' W 122°56'0 0.0
2017-Oct-19 08:58N 47°11' W 122°56'0 0.0
2017-Oct-19 07:56N 47°11' W 122°56'0 0.0
2017-Oct-19 07:22N 47°11' W 122°56'0 0.0
2017-Oct-19 06:59N 47°11' W 122°56'0 0.0
2017-Oct-19 06:28N 47°11' W 122°56'0 0.0
2017-Oct-19 05:59N 47°11' W 122°56'0 0.0
2017-Oct-19 05:30N 47°11' W 122°56'0 0.0
2017-Oct-19 04:59N 47°11' W 122°56'8 1.8
2017-Oct-19 00:37N 47°03' W 122°56'1 4.0
2017-Oct-19 00:26N 47°03' W 122°56'1 0.4
2017-Oct-18 21:47N 47°02' W 122°55'0 0.0
2017-Oct-18 21:29N 47°02' W 122°55'0 0.0
2017-Oct-18 19:52N 47°02' W 122°55'0 0.0
2017-Oct-18 19:30N 47°02' W 122°55'0 0.0
2017-Oct-18 17:14N 47°02' W 122°55'0 0.0
2017-Oct-18 16:11N 47°02' W 122°55'421.3
2017-Oct-18 16:00N 47°03' W 123°00'8 8.7
2017-Oct-18 15:05N 47°11' W 122°56'0 0.0
2017-Oct-18 15:00N 47°11' W 122°56'0 0.0
2017-Oct-18 13:53N 47°11' W 122°56'0 0.0
2017-Oct-18 13:22N 47°11' W 122°56'0 0.0
2017-Oct-18 12:59N 47°11' W 122°56'0 0.0
2017-Oct-18 12:29N 47°11' W 122°56'0 0.0
2017-Oct-18 11:58N 47°11' W 122°56'0 0.0
2017-Oct-18 11:29N 47°11' W 122°56'0 0.0
2017-Oct-18 10:58N 47°11' W 122°56'0 0.0
2017-Oct-18 10:30N 47°11' W 122°56'0 0.0
2017-Oct-18 09:59N 47°11' W 122°56'0 0.0
2017-Oct-18 09:28N 47°11' W 122°56'0 0.0
2017-Oct-18 09:00N 47°11' W 122°56'0 0.0
2017-Oct-18 08:30N 47°11' W 122°56'0 0.0
2017-Oct-18 08:00N 47°11' W 122°56'0 0.0
2017-Oct-18 07:30N 47°11' W 122°56'0 0.0
2017-Oct-18 07:00N 47°11' W 122°56'0 0.0
2017-Oct-18 06:29N 47°11' W 122°56'0 0.0
2017-Oct-18 05:59N 47°11' W 122°56'0 0.1
2017-Oct-18 05:30N 47°11' W 122°56'0 0.0
2017-Oct-18 05:00N 47°11' W 122°56'0 0.0
2017-Oct-18 04:29N 47°11' W 122°56'0 0.0
2017-Oct-18 03:58N 47°11' W 122°56'26 9.9
2017-Oct-18 01:23N 47°16' W 122°19'1951.6
2017-Oct-18 01:00N 47°04' W 122°42'9 6.3
2017-Oct-17 23:32N 47°02' W 122°55'0 0.0
2017-Oct-17 23:28N 47°02' W 122°55'0 0.0
2017-Oct-17 22:55N 47°02' W 122°55'0 0.0
2017-Oct-17 22:27N 47°02' W 122°55'0 0.0
2017-Oct-17 21:59N 47°02' W 122°55'0 0.0
2017-Oct-17 20:50N 47°02' W 122°55'0 0.0
2017-Oct-17 20:26N 47°02' W 122°55'0 0.0
2017-Oct-17 19:52N 47°02' W 122°55'0 0.0
2017-Oct-17 19:30N 47°02' W 122°55'1 2.2
2017-Oct-17 18:59N 47°02' W 122°54'1 2.3
2017-Oct-17 18:30N 47°02' W 122°55'0 0.0
2017-Oct-17 17:18N 47°02' W 122°55'0 0.0
2017-Oct-17 16:50N 47°02' W 122°55'0 0.0
2017-Oct-17 16:28N 47°02' W 122°55'0 0.1
2017-Oct-17 15:57N 47°02' W 122°55'919.0
2017-Oct-17 15:28N 47°11' W 122°56'0 0.0
2017-Oct-17 14:58N 47°11' W 122°56'0 0.0
2017-Oct-17 14:28N 47°11' W 122°56'0 0.0
2017-Oct-17 13:58N 47°11' W 122°56'0 0.0
2017-Oct-17 13:30N 47°11' W 122°56'0 0.0
2017-Oct-17 12:47N 47°11' W 122°56'0 0.0
2017-Oct-17 11:23N 47°11' W 122°56'0 0.0
2017-Oct-17 10:49N 47°11' W 122°56'0 0.0
2017-Oct-17 10:01N 47°11' W 122°56'0 0.2
2017-Oct-17 09:58N 47°11' W 122°56'0 0.0
2017-Oct-17 09:29N 47°11' W 122°56'0 0.0
2017-Oct-17 03:15N 47°11' W 122°56'0 0.0
2017-Oct-17 03:00N 47°11' W 122°56'0 0.0
2017-Oct-17 02:30N 47°11' W 122°56'0 0.0
2017-Oct-17 02:00N 47°11' W 122°56'0 0.0
2017-Oct-17 01:28N 47°11' W 122°56'0 0.0
2017-Oct-17 00:59N 47°11' W 122°56'0 0.0
2017-Oct-17 00:30N 47°11' W 122°56'0 0.0
2017-Oct-16 23:59N 47°11' W 122°56'2 0.7
2017-Oct-16 21:20N 47°09' W 122°57'1235.7
2017-Oct-16 21:00N 46°57' W 122°56'1427.6
2017-Oct-16 20:30N 46°43' W 122°57'0 0.0
2017-Oct-16 19:56N 46°43' W 122°57'511.2
2017-Oct-16 19:28N 46°38' W 122°56'4154.5
2017-Oct-16 18:43N 45°57' W 122°48'2260.4
2017-Oct-16 18:21N 45°38' W 122°34'3 9.0
2017-Oct-16 18:00N 45°35' W 122°34'28513.8
2017-Oct-15 21:23N 40°50' W 122°20'  

Dump ship's entire track history